In Rescue
 
Open Full Screen Window  High Contrast Mode
Wind Gusting 00 knots
09
September 21, 2019 7:59 AM CDT
Weather Information
Wind Direction
  170 °
Wind Speed
  09 kt (10 mph)
Wind Gust
  00 kt (0 mph)
Altimeter
29.77 in
Visibility
4 SM
Temperature
20° C
68° F
Dewpoint
19° C
66° F
Humidity
94%
1hr Rain Fall
00.00 in.
24hr Rain Fall
00.00 in.
Sky Condition
Overcast @ 5,000 ft
Broken @ 1,400 ft
Scattered @ 800 ft
MVFR

METAR KHZX 211259Z AUTO 17009KT 4SM SCT008 BKN014 OVC050 20/19 A2977 RMK AO2 LTG DSNT SW AND NW

FAA Disclaimer: The data displayed is for advisory purposes only and is not to be used for flight planning or operations.